Time;durP1;ratioP1;P1;durP2;ratioP2;P2;SDS_P1;SDS_P2;PMS_P1;PMS_P2;Temp;Humidity;BMP_temperature;BMP_pressure;BME280_temperature;BME280_humidity;BME280_pressure;Samples;Min_cycle;Max_cycle;Signal;HPM_P1;HPM_P2
2023/03/13 00:00:55;;;;;;;36.40;9.87;;;;;;;;;;5053700;28;20483;-61
2023/03/13 00:03:23;;;;;;;35.00;8.97;;;12.10;98.80;;;;;;5052061;28;20470;-60
2023/03/13 00:05:50;;;;;;;34.00;7.83;;;12.20;98.80;;;;;;5052744;28;20483;-60
2023/03/13 00:08:16;;;;;;;29.73;7.23;;;12.20;98.90;;;;;;5062810;28;20489;-61
2023/03/13 00:10:43;;;;;;;25.60;7.20;;;;;;;;;;5051982;28;20482;-62
2023/03/13 00:13:10;;;;;;;42.17;11.60;;;;;;;;;;5066690;28;21052;-61
2023/03/13 00:15:37;;;;;;;28.03;7.50;;;12.10;98.90;;;;;;5059990;28;20478;-61
2023/03/13 00:18:04;;;;;;;33.50;6.47;;;12.20;98.60;;;;;;5062328;28;20482;-62
2023/03/13 00:20:33;;;;;;;33.87;8.60;;;;;;;;;;5053399;28;20527;-61
2023/03/13 00:23:00;;;;;;;41.20;13.30;;;;;;;;;;5067094;28;20478;-62
2023/03/13 00:25:27;;;;;;;40.13;9.83;;;12.00;98.90;;;;;;5052587;28;20783;-62
2023/03/13 00:27:53;;;;;;;39.47;7.40;;;12.00;98.90;;;;;;5038485;28;21007;-62
2023/03/13 00:30:20;;;;;;;38.27;10.53;;;12.00;98.90;;;;;;5054487;28;20853;-62
2023/03/13 00:32:47;;;;;;;27.57;9.07;;;12.00;99.10;;;;;;5052500;28;20559;-61
2023/03/13 00:35:15;;;;;;;42.47;11.00;;;12.00;99.00;;;;;;5062474;28;20498;-61
2023/03/13 00:37:43;;;;;;;20.23;6.97;;;12.00;99.00;;;;;;5059708;28;21125;-61
2023/03/13 00:40:11;;;;;;;33.63;11.27;;;12.10;99.10;;;;;;5047503;28;21491;-61
2023/03/13 00:42:37;;;;;;;33.17;9.63;;;12.00;99.10;;;;;;5054572;28;20909;-62
2023/03/13 00:45:05;;;;;;;43.23;13.03;;;;;;;;;;5055175;28;20484;-62
2023/03/13 00:47:32;;;;;;;33.03;8.43;;;;;;;;;;5065929;28;20474;-62
2023/03/13 00:49:58;;;;;;;35.03;8.50;;;12.10;99.20;;;;;;5059105;28;20596;-62
2023/03/13 00:52:27;;;;;;;38.20;8.00;;;12.10;99.20;;;;;;5057376;28;20477;-62
2023/03/13 00:54:55;;;;;;;34.53;10.50;;;12.00;99.30;;;;;;5056782;28;20476;-62
2023/03/13 00:57:21;;;;;;;36.20;7.07;;;12.10;99.40;;;;;;5055263;28;20475;-62
2023/03/13 00:59:48;;;;;;;32.97;8.73;;;12.10;99.60;;;;;;5062825;28;20470;-62
2023/03/13 01:02:15;;;;;;;40.33;10.50;;;;;;;;;;5059776;28;20479;-61
2023/03/13 01:04:41;;;;;;;40.63;7.03;;;12.10;99.90;;;;;;5064072;28;20816;-62
2023/03/13 01:07:08;;;;;;;48.93;11.93;;;12.10;99.90;;;;;;5067110;28;20474;-61
2023/03/13 01:09:35;;;;;;;37.73;10.33;;;12.00;99.90;;;;;;5048658;28;20744;-62
2023/03/13 01:12:03;;;;;;;35.83;7.27;;;12.00;99.90;;;;;;5058537;28;20861;-62
2023/03/13 01:14:30;;;;;;;52.87;11.13;;;11.90;99.90;;;;;;5060834;28;20524;-61
2023/03/13 01:16:57;;;;;;;43.07;9.73;;;;;;;;;;5026427;28;20982;-62
2023/03/13 01:19:23;;;;;;;50.13;9.77;;;11.90;99.90;;;;;;5040166;28;20481;-61
2023/03/13 01:21:50;;;;;;;37.27;9.70;;;;;;;;;;5058226;28;20476;-61
2023/03/13 01:24:19;;;;;;;44.60;8.80;;;12.00;99.90;;;;;;5055496;28;20489;-62
2023/03/13 01:26:45;;;;;;;21.83;6.23;;;11.90;99.90;;;;;;5073225;28;20498;-62
2023/03/13 01:29:14;;;;;;;42.30;10.57;;;11.90;99.90;;;;;;5048857;28;20954;-61
2023/03/13 01:31:40;;;;;;;26.20;6.00;;;11.80;99.90;;;;;;5063580;28;20474;-62
2023/03/13 01:34:08;;;;;;;32.40;9.73;;;11.80;99.90;;;;;;5072682;28;20906;-62
2023/03/13 01:36:36;;;;;;;31.37;8.30;;;;;;;;;;5072937;28;20524;-62
2023/03/13 01:39:03;;;;;;;29.00;7.73;;;11.70;99.90;;;;;;5058725;28;20875;-61
2023/03/13 01:41:31;;;;;;;40.07;5.17;;;11.70;99.90;;;;;;5045214;28;20478;-60
2023/03/13 01:43:58;;;;;;;37.93;8.20;;;11.70;99.90;;;;;;5051475;28;20539;-62
2023/03/13 01:46:27;;;;;;;29.90;7.20;;;11.60;99.90;;;;;;5065158;28;20475;-62
2023/03/13 01:48:57;;;;;;;29.40;6.80;;;;;;;;;;5064604;28;21086;-61
2023/03/13 01:51:28;;;;;;;25.37;6.63;;;11.50;99.90;;;;;;5061532;28;20470;-62
2023/03/13 01:54:01;;;;;;;27.83;7.37;;;11.50;99.90;;;;;;5067252;28;20983;-61
2023/03/13 01:56:35;;;;;;;26.17;7.63;;;11.50;99.90;;;;;;5058470;28;20483;-61
2023/03/13 01:59:03;;;;;;;40.77;9.60;;;;;;;;;;5069971;28;20483;-61
2023/03/13 02:01:31;;;;;;;36.07;7.80;;;11.50;99.90;;;;;;5072053;28;20505;-62
2023/03/13 02:03:58;;;;;;;35.10;9.47;;;11.30;99.90;;;;;;5059320;28;20728;-62
2023/03/13 02:06:27;;;;;;;34.50;6.53;;;11.40;99.90;;;;;;5065834;28;20512;-62
2023/03/13 02:08:57;;;;;;;29.27;8.83;;;;;;;;;;5068527;28;20482;-60
2023/03/13 02:11:28;;;;;;;29.97;8.20;;;;;;;;;;5052215;28;20494;-61
2023/03/13 02:13:56;;;;;;;23.23;6.77;;;11.20;99.90;;;;;;5069625;28;20509;-61
2023/03/13 02:16:23;;;;;;;30.20;9.17;;;11.00;99.90;;;;;;5048874;28;20905;-61
2023/03/13 02:18:51;;;;;;;31.00;8.00;;;;;;;;;;5056825;28;20524;-61
2023/03/13 02:21:30;;;;;;;23.87;6.23;;;11.10;99.90;;;;;;5055076;28;21567;-60
2023/03/13 02:24:00;;;;;;;29.87;7.50;;;;;;;;;;5071005;28;20474;-60
2023/03/13 02:26:28;;;;;;;30.33;7.83;;;10.90;99.90;;;;;;5071172;28;20556;-60
2023/03/13 02:28:54;;;;;;;31.30;6.17;;;11.00;99.90;;;;;;5077360;28;20487;-60
2023/03/13 02:31:21;;;;;;;24.60;6.70;;;11.00;99.90;;;;;;5073426;28;20486;-60
2023/03/13 02:33:48;;;;;;;31.93;7.53;;;;;;;;;;5065736;28;20487;-60
2023/03/13 02:36:16;;;;;;;47.57;13.83;;;11.00;99.90;;;;;;5061659;28;20536;-60
2023/03/13 02:38:46;;;;;;;20.23;6.17;;;;;;;;;;5061550;28;20552;-60
2023/03/13 02:41:13;;;;;;;31.13;10.40;;;10.90;99.90;;;;;;5065101;28;21111;-60
2023/03/13 02:43:41;;;;;;;20.93;7.03;;;11.10;99.90;;;;;;5041191;28;20563;-60
2023/03/13 02:46:10;;;;;;;35.17;11.03;;;;;;;;;;5071556;28;20837;-60
2023/03/13 02:48:39;;;;;;;16.90;5.70;;;11.00;99.90;;;;;;5059660;28;20889;-60
2023/03/13 02:51:13;;;;;;;31.47;9.60;;;11.10;99.90;;;;;;5059129;28;20544;-60
2023/03/13 02:53:41;;;;;;;29.23;7.70;;;11.10;99.90;;;;;;5046112;28;20480;-60
2023/03/13 02:56:08;;;;;;;36.30;9.57;;;;;;;;;;5066217;28;20887;-60
2023/03/13 02:59:05;;;;;;;26.67;8.00;;;11.00;99.90;;;;;;5065926;28;20544;-60
2023/03/13 03:01:32;;;;;;;24.30;8.50;;;11.10;99.90;;;;;;5069389;28;21130;-61
2023/03/13 03:03:59;;;;;;;30.93;7.50;;;11.00;99.90;;;;;;5069691;28;20510;-61
2023/03/13 03:06:26;;;;;;;29.87;6.43;;;11.20;99.90;;;;;;5058442;28;20507;-60
2023/03/13 03:08:52;;;;;;;20.30;6.80;;;11.10;99.90;;;;;;5065978;28;20479;-61
2023/03/13 03:11:19;;;;;;;38.00;10.13;;;11.10;99.90;;;;;;5058181;28;20822;-61
2023/03/13 03:13:46;;;;;;;17.40;5.67;;;;;;;;;;5074726;28;20536;-61
2023/03/13 03:16:17;;;;;;;34.93;9.57;;;11.20;99.90;;;;;;5065949;28;20653;-60
2023/03/13 03:18:44;;;;;;;24.87;6.47;;;11.30;99.90;;;;;;5071705;28;20482;-61
2023/03/13 03:21:11;;;;;;;33.93;9.70;;;;;;;;;;5070405;28;20478;-61
2023/03/13 03:23:38;;;;;;;24.83;7.10;;;;;;;;;;5046081;28;20996;-61
2023/03/13 03:26:06;;;;;;;55.47;12.47;;;11.30;99.90;;;;;;5038966;28;21010;-62
2023/03/13 03:28:33;;;;;;;27.77;5.40;;;11.50;99.90;;;;;;5056733;28;20486;-61
2023/03/13 03:31:04;;;;;;;49.57;12.70;;;11.50;99.90;;;;;;5057574;28;20489;-61
2023/03/13 03:33:32;;;;;;;35.60;8.80;;;;;;;;;;5056224;28;20479;-61
2023/03/13 03:36:00;;;;;;;39.03;10.50;;;11.40;99.90;;;;;;5055638;28;20927;-61
2023/03/13 03:38:26;;;;;;;27.93;8.23;;;11.50;99.90;;;;;;5055969;28;20476;-61
2023/03/13 03:40:53;;;;;;;30.40;9.47;;;11.50;99.90;;;;;;5065514;28;20493;-61
2023/03/13 03:43:20;;;;;;;27.77;7.00;;;11.60;99.90;;;;;;5076501;28;20906;-61
2023/03/13 03:45:46;;;;;;;31.67;7.60;;;11.50;99.90;;;;;;5072465;28;20843;-61
2023/03/13 03:48:13;;;;;;;40.47;9.80;;;;;;;;;;5060014;28;21383;-61
2023/03/13 03:50:41;;;;;;;19.63;5.50;;;11.60;99.90;;;;;;5062925;28;20539;-61
2023/03/13 03:53:08;;;;;;;30.27;9.47;;;11.60;99.90;;;;;;5058324;28;20973;-61
2023/03/13 03:55:35;;;;;;;21.10;7.63;;;11.70;99.90;;;;;;5056483;28;20862;-61
2023/03/13 03:58:02;;;;;;;29.20;7.73;;;11.70;99.90;;;;;;5065257;28;20492;-61
2023/03/13 04:00:29;;;;;;;24.50;6.83;;;11.80;99.90;;;;;;5062905;28;20478;-61
2023/03/13 04:02:55;;;;;;;20.53;8.07;;;11.60;99.90;;;;;;5068991;28;20827;-61
2023/03/13 04:05:23;;;;;;;35.40;9.97;;;11.60;99.90;;;;;;5064376;28;20569;-61
2023/03/13 04:07:51;;;;;;;33.93;7.97;;;11.70;99.90;;;;;;5029327;28;20483;-61
2023/03/13 04:10:18;;;;;;;33.67;9.17;;;11.80;99.90;;;;;;5061417;28;20485;-61
2023/03/13 04:12:45;;;;;;;23.43;6.53;;;;;;;;;;5073365;28;21013;-61
2023/03/13 04:15:13;;;;;;;41.57;12.03;;;11.80;99.90;;;;;;5061005;28;20494;-61
2023/03/13 04:17:39;;;;;;;24.80;5.80;;;11.80;99.90;;;;;;5053429;28;20486;-61
2023/03/13 04:20:07;;;;;;;50.37;11.33;;;11.70;99.90;;;;;;5072238;28;20486;-61
2023/03/13 04:22:34;;;;;;;34.30;7.90;;;11.70;99.90;;;;;;5062668;28;20814;-61
2023/03/13 04:25:02;;;;;;;40.07;10.00;;;;;;;;;;5058899;28;20498;-61
2023/03/13 04:27:29;;;;;;;33.03;8.20;;;11.70;99.90;;;;;;5073958;28;20471;-61
2023/03/13 04:29:55;;;;;;;24.90;8.60;;;12.40;99.90;;;;;;5058056;28;20571;-61
2023/03/13 04:32:22;;;;;;;28.23;7.53;;;11.70;99.90;;;;;;5062026;28;20475;-61
2023/03/13 04:34:48;;;;;;;34.70;8.60;;;11.80;99.90;;;;;;5055162;28;20471;-61
2023/03/13 04:37:15;;;;;;;38.53;11.07;;;11.80;99.90;;;;;;5040369;28;20467;-61
2023/03/13 04:39:42;;;;;;;26.70;7.20;;;11.70;99.90;;;;;;5049554;28;20866;-61
2023/03/13 04:42:11;;;;;;;40.60;9.30;;;;;;;;;;5061894;28;21042;-61
2023/03/13 04:44:37;;;;;;;22.77;5.80;;;11.90;99.90;;;;;;5053760;28;20486;-61
2023/03/13 04:47:04;;;;;;;32.00;11.43;;;12.00;99.90;;;;;;5052309;28;20960;-61
2023/03/13 04:49:31;;;;;;;24.83;6.07;;;12.00;99.90;;;;;;5071453;28;20490;-61
2023/03/13 04:51:58;;;;;;;28.90;6.60;;;;;;;;;;5068131;28;20482;-61
2023/03/13 04:54:25;;;;;;;31.37;8.60;;;;;;;;;;5050734;28;20584;-61
2023/03/13 04:56:52;;;;;;;22.90;5.80;;;11.90;99.90;;;;;;5049672;28;20486;-62
2023/03/13 04:59:20;;;;;;;20.03;6.50;;;11.90;99.90;;;;;;5070855;28;20524;-61
2023/03/13 05:01:46;;;;;;;21.63;5.87;;;11.90;99.90;;;;;;5070040;28;20560;-61
2023/03/13 05:04:13;;;;;;;28.93;8.10;;;11.90;99.90;;;;;;5071576;28;20470;-61
2023/03/13 05:06:40;;;;;;;18.33;6.17;;;11.80;99.90;;;;;;5072166;28;20481;-62
2023/03/13 05:09:07;;;;;;;36.17;10.23;;;;;;;;;;5046277;28;20547;-62
2023/03/13 05:11:34;;;;;;;23.17;5.40;;;;;;;;;;5040825;28;20483;-60
2023/03/13 05:14:01;;;;;;;37.93;11.07;;;11.80;99.90;;;;;;5029638;28;21003;-60
2023/03/13 05:16:29;;;;;;;33.67;8.83;;;11.80;99.90;;;;;;5053169;28;20532;-61
2023/03/13 05:18:55;;;;;;;28.07;6.60;;;11.80;99.90;;;;;;5036970;28;20540;-60
2023/03/13 05:21:22;;;;;;;36.63;7.40;;;15.20;99.90;;;;;;5056050;28;20470;-60
2023/03/13 05:23:49;;;;;;;38.57;9.50;;;11.90;99.90;;;;;;5075752;28;20542;-61
2023/03/13 05:26:15;;;;;;;27.53;8.23;;;11.90;99.90;;;;;;5073453;28;20504;-61
2023/03/13 05:28:42;;;;;;;23.70;6.23;;;;;;;;;;5074709;28;20474;-60
2023/03/13 05:31:09;;;;;;;35.17;9.40;;;11.90;99.90;;;;;;5065194;28;20498;-61
2023/03/13 05:33:37;;;;;;;22.07;5.77;;;12.00;99.90;;;;;;5070111;28;20582;-60
2023/03/13 05:36:04;;;;;;;28.60;8.90;;;12.10;99.90;;;;;;5058031;28;20563;-60
2023/03/13 05:38:31;;;;;;;28.07;7.13;;;12.10;99.90;;;;;;5062661;28;20983;-60
2023/03/13 05:40:58;;;;;;;28.80;6.87;;;;;;;;;;5063646;28;20821;-60
2023/03/13 05:43:25;;;;;;;32.90;9.40;;;12.00;99.90;;;;;;5071854;28;20533;-60
2023/03/13 05:45:51;;;;;;;31.97;8.33;;;12.00;99.90;;;;;;5070531;28;20608;-60
2023/03/13 05:48:18;;;;;;;19.03;5.87;;;12.10;99.90;;;;;;5056653;28;20709;-60
2023/03/13 05:50:46;;;;;;;20.20;4.87;;;12.20;99.90;;;;;;5068369;28;20572;-60
2023/03/13 05:53:13;;;;;;;42.33;10.80;;;;;;;;;;5072859;28;20532;-59
2023/03/13 05:55:40;;;;;;;20.30;5.70;;;;;;;;;;5069823;28;20914;-60
2023/03/13 05:58:07;;;;;;;41.13;10.27;;;12.20;99.90;;;;;;5068864;28;20564;-60
2023/03/13 06:00:34;;;;;;;32.87;7.20;;;12.20;99.90;;;;;;5067544;28;20859;-61
2023/03/13 06:03:00;;;;;;;44.67;11.53;;;12.20;99.90;;;;;;5070714;28;20840;-60
2023/03/13 06:05:27;;;;;;;32.07;9.40;;;12.20;99.90;;;;;;5058899;28;20482;-60
2023/03/13 06:07:55;;;;;;;24.10;7.57;;;;;;;;;;5055534;28;20470;-60
2023/03/13 06:10:26;;;;;;;28.13;7.67;;;;;;;;;;5042380;28;20491;-60
2023/03/13 06:12:54;;;;;;;28.70;10.70;;;;;;;;;;5061970;28;20900;-61
2023/03/13 06:15:21;;;;;;;25.57;7.93;;;12.20;99.90;;;;;;5047315;28;20819;-60
2023/03/13 06:17:47;;;;;;;22.40;6.87;;;12.30;99.90;;;;;;5068996;28;20894;-61
2023/03/13 06:20:14;;;;;;;34.80;9.90;;;12.20;99.90;;;;;;5068567;28;20482;-61
2023/03/13 06:22:42;;;;;;;35.33;8.80;;;;;;;;;;5068291;28;20490;-60
2023/03/13 06:25:10;;;;;;;53.47;12.67;;;12.20;99.90;;;;;;5063154;28;20890;-60
2023/03/13 06:27:37;;;;;;;19.20;6.07;;;12.40;99.90;;;;;;5068844;28;20483;-61
2023/03/13 06:30:04;;;;;;;32.67;9.93;;;12.30;99.90;;;;;;5075474;28;20474;-61
2023/03/13 06:32:31;;;;;;;33.83;7.63;;;12.40;99.90;;;;;;5039643;28;20800;-61
2023/03/13 06:34:58;;;;;;;26.73;8.53;;;13.80;99.90;;;;;;5074509;28;20982;-62
2023/03/13 06:37:25;;;;;;;26.27;7.87;;;;;;;;;;5055302;28;20939;-61
2023/03/13 06:39:51;;;;;;;36.20;9.10;;;12.40;99.90;;;;;;5073671;28;20876;-61
2023/03/13 06:42:20;;;;;;;33.80;8.97;;;8.50;99.90;;;;;;5075552;28;21475;-61
2023/03/13 06:44:47;;;;;;;18.23;6.20;;;;;;;;;;5035010;28;20606;-61
2023/03/13 06:47:14;;;;;;;35.03;9.47;;;;;;;;;;5071465;28;20695;-61
2023/03/13 06:49:41;;;;;;;25.40;7.47;;;12.30;99.90;;;;;;5060091;28;20475;-61
2023/03/13 06:52:08;;;;;;;42.20;12.20;;;;;;;;;;5073193;28;20815;-62
2023/03/13 06:54:34;;;;;;;36.67;8.43;;;12.30;99.90;;;;;;5061141;28;20520;-61
2023/03/13 06:57:01;;;;;;;18.47;7.50;;;12.50;99.90;;;;;;5071111;28;20482;-61
2023/03/13 06:59:29;;;;;;;19.33;8.03;;;12.60;99.90;;;;;;5062159;28;20697;-61
2023/03/13 07:01:56;;;;;;;27.57;9.93;;;12.60;99.90;;;;;;5073541;28;20482;-61
2023/03/13 07:04:23;;;;;;;22.77;7.13;;;;;;;;;;5053754;28;20474;-61
2023/03/13 07:06:51;;;;;;;28.67;9.80;;;12.50;99.90;;;;;;5072675;28;20551;-62
2023/03/13 07:09:18;;;;;;;23.43;7.83;;;12.50;99.90;;;;;;5064097;28;20481;-61
2023/03/13 07:11:46;;;;;;;30.00;8.70;;;;;;;;;;5057599;28;20506;-62
2023/03/13 07:14:13;;;;;;;26.50;8.90;;;12.50;99.90;;;;;;5075513;28;20802;-62
2023/03/13 07:16:41;;;;;;;20.63;5.57;;;12.40;99.90;;;;;;5090626;28;20477;-61
2023/03/13 07:19:07;;;;;;;32.63;11.80;;;12.60;99.90;;;;;;5069368;28;20523;-61
2023/03/13 07:21:34;;;;;;;21.80;8.10;;;12.60;99.90;;;;;;5078608;28;20536;-61
2023/03/13 07:24:01;;;;;;;35.70;9.20;;;;;;;;;;5082756;28;20486;-62
2023/03/13 07:26:28;;;;;;;30.70;8.90;;;;;;;;;;5074580;28;21162;-61
2023/03/13 07:28:56;;;;;;;24.13;6.33;;;12.70;99.90;;;;;;5072887;28;20535;-61
2023/03/13 07:31:23;;;;;;;41.33;10.33;;;12.70;99.90;;;;;;5066689;28;20545;-62
2023/03/13 07:33:53;;;;;;;31.00;8.70;;;;;;;;;;5064621;28;20834;-61
2023/03/13 07:36:20;;;;;;;17.13;6.60;;;12.70;99.90;;;;;;5079472;28;20475;-62
2023/03/13 07:38:48;;;;;;;20.67;6.17;;;12.70;99.90;;;;;;5058228;28;20470;-61
2023/03/13 07:41:15;;;;;;;26.70;9.43;;;12.80;99.90;;;;;;5068147;28;20487;-60
2023/03/13 07:43:42;;;;;;;34.50;8.17;;;;;;;;;;5055955;28;20474;-61
2023/03/13 07:46:12;;;;;;;33.87;11.90;;;12.80;99.90;;;;;;5069667;28;20735;-61
2023/03/13 07:48:41;;;;;;;20.03;7.03;;;12.80;99.90;;;;;;5075095;28;20567;-61
2023/03/13 07:51:13;;;;;;;29.63;10.60;;;12.90;99.90;;;;;;5068940;28;20940;-61
2023/03/13 07:53:40;;;;;;;29.27;6.60;;;12.90;99.90;;;;;;5051944;28;20489;-62
2023/03/13 07:56:07;;;;;;;37.20;11.60;;;;;;;;;;5074022;28;21035;-62
2023/03/13 07:58:36;;;;;;;29.93;8.70;;;13.00;99.90;;;;;;5064496;28;20481;-61
2023/03/13 08:01:08;;;;;;;30.17;11.63;;;14.60;99.90;;;;;;5046954;28;20650;-61
2023/03/13 08:03:35;;;;;;;32.80;7.83;;;;;;;;;;5056783;28;20971;-62
2023/03/13 08:06:03;;;;;;;28.37;10.07;;;;;;;;;;5075132;28;20473;-62
2023/03/13 08:08:32;;;;;;;14.73;5.97;;;;;;;;;;5082179;28;20482;-62
2023/03/13 08:11:02;;;;;;;23.73;9.37;;;12.80;99.90;;;;;;5066643;28;20474;-61
2023/03/13 08:13:28;;;;;;;22.90;7.50;;;12.90;99.90;;;;;;5049481;28;20476;-60
2023/03/13 08:16:02;;;;;;;20.37;7.50;;;;;;;;;;5049466;28;20517;-61
2023/03/13 08:18:33;;;;;;;29.73;6.67;;;13.20;99.90;;;;;;5029129;28;20474;-61
2023/03/13 08:21:01;;;;;;;25.63;11.00;;;13.40;99.90;;;;;;5017268;28;20486;-61
2023/03/13 08:23:28;;;;;;;22.13;7.93;;;13.70;99.90;;;;;;5047239;28;20486;-61
2023/03/13 08:25:56;;;;;;;30.67;8.70;;;;;;;;;;5057846;28;20482;-62
2023/03/13 08:28:23;;;;;;;21.50;7.47;;;13.80;99.90;;;;;;5058989;28;20509;-60
2023/03/13 08:30:49;;;;;;;26.60;7.27;;;13.90;99.90;;;;;;5069952;28;20515;-60
2023/03/13 08:33:16;;;;;;;40.80;9.13;;;13.80;99.90;;;;;;5055191;28;20473;-61
2023/03/13 08:35:43;;;;;;;26.57;7.70;;;13.80;99.90;;;;;;5045068;28;20833;-61
2023/03/13 08:38:09;;;;;;;48.07;13.63;;;13.60;99.90;;;;;;5067793;28;20490;-61
2023/03/13 08:40:36;;;;;;;20.30;6.07;;;13.70;99.90;;;;;;5064755;28;20546;-61
2023/03/13 08:43:04;;;;;;;32.17;10.80;;;;;;;;;;5075842;28;20488;-61
2023/03/13 08:45:31;;;;;;;26.17;8.17;;;13.60;99.90;;;;;;5057079;28;20761;-61
2023/03/13 08:47:57;;;;;;;25.17;8.60;;;17.00;99.90;;;;;;5065225;28;20478;-61
2023/03/13 08:50:24;;;;;;;30.73;8.57;;;13.40;99.90;;;;;;5071656;28;20482;-61
2023/03/13 08:52:51;;;;;;;23.30;7.40;;;13.60;99.90;;;;;;5055157;28;20478;-61
2023/03/13 08:55:17;;;;;;;21.63;8.30;;;13.60;99.90;;;;;;5088651;28;20477;-61
2023/03/13 08:57:44;;;;;;;17.23;7.23;;;13.50;99.90;;;;;;5077277;28;20801;-62
2023/03/13 09:00:14;;;;;;;39.43;11.30;;;13.50;99.90;;;;;;5067583;28;20556;-62
2023/03/13 09:02:41;;;;;;;19.30;5.63;;;13.60;99.90;;;;;;5049234;28;20571;-62
2023/03/13 09:05:08;;;;;;;30.80;10.30;;;13.70;99.90;;;;;;5049180;28;21059;-62
2023/03/13 09:07:34;;;;;;;23.87;7.13;;;13.60;99.90;;;;;;5055932;28;20510;-62
2023/03/13 09:10:01;;;;;;;45.07;10.33;;;;;;;;;;5051808;28;20491;-62
2023/03/13 09:12:30;;;;;;;26.57;7.63;;;13.70;99.90;;;;;;5075954;28;21033;-62
2023/03/13 09:14:57;;;;;;;31.43;9.87;;;12.80;99.90;;;;;;5066384;28;20879;-62
2023/03/13 09:17:26;;;;;;;22.33;7.37;;;;;;;;;;5086426;28;20489;-61
2023/03/13 09:19:52;;;;;;;29.30;9.30;;;13.80;99.90;;;;;;5060716;28;20485;-62
2023/03/13 09:22:19;;;;;;;17.77;5.00;;;13.80;99.90;;;;;;5066200;28;20552;-62
2023/03/13 09:24:46;;;;;;;24.23;7.47;;;13.70;99.90;;;;;;5059322;28;20471;-62
2023/03/13 09:27:12;;;;;;;34.33;11.40;;;13.60;99.90;;;;;;5071143;28;20477;-62
2023/03/13 09:29:41;;;;;;;15.03;5.37;;;13.80;99.90;;;;;;5086840;28;20485;-62
2023/03/13 09:32:09;;;;;;;37.60;12.90;;;14.10;99.90;;;;;;5077638;28;20971;-62
2023/03/13 09:34:37;;;;;;;20.63;8.53;;;14.10;99.90;;;;;;5087932;28;20500;-62
2023/03/13 09:37:04;;;;;;;32.83;9.53;;;;;;;;;;5089029;28;20489;-61
2023/03/13 09:39:31;;;;;;;27.13;8.03;;;;;;;;;;5082368;28;20888;-61
2023/03/13 09:42:04;;;;;;;35.37;9.23;;;14.10;99.90;;;;;;5076589;28;20602;-62
2023/03/13 09:44:33;;;;;;;20.13;6.17;;;;;;;;;;5077730;28;20482;-61
2023/03/13 09:47:04;;;;;;;32.37;12.37;;;14.00;99.90;;;;;;5071336;28;20473;-61
2023/03/13 09:49:33;;;;;;;20.20;8.03;;;;;;;;;;5079424;28;20462;-61
2023/03/13 09:52:11;;;;;;;27.03;9.77;;;14.00;99.90;;;;;;5091275;28;20757;-61
2023/03/13 09:54:43;;;;;;;17.20;6.80;;;14.00;99.90;;;;;;5076379;28;20512;-61
2023/03/13 09:57:16;;;;;;;31.10;8.93;;;14.30;99.90;;;;;;5059691;28;20478;-61
2023/03/13 09:59:47;;;;;;;14.27;5.20;;;;;;;;;;5071611;28;20966;-61
2023/03/13 10:02:23;;;;;;;29.23;9.93;;;14.50;99.90;;;;;;5083782;28;20790;-61
2023/03/13 10:04:53;;;;;;;34.50;9.30;;;14.60;99.90;;;;;;5071975;28;20894;-61
2023/03/13 10:07:21;;;;;;;32.17;8.87;;;14.70;99.90;;;;;;5070604;28;20479;-61
2023/03/13 10:09:48;;;;;;;28.73;6.90;;;14.70;99.90;;;;;;5061937;28;20489;-61
2023/03/13 10:12:20;;;;;;;32.73;9.70;;;14.90;99.90;;;;;;5081534;28;20474;-61
2023/03/13 10:14:52;;;;;;;24.97;6.77;;;;;;;;;;5064791;28;20554;-61
2023/03/13 10:17:23;;;;;;;24.40;6.77;;;;;;;;;;5092300;28;20895;-61
2023/03/13 10:19:55;;;;;;;19.73;6.07;;;;;;;;;;5081274;28;20548;-61
2023/03/13 10:22:25;;;;;;;35.37;8.57;;;;;;;;;;5076084;28;20469;-61
2023/03/13 10:24:58;;;;;;;26.63;9.00;;;15.20;99.90;;;;;;5071411;28;20490;-61
2023/03/13 10:27:24;;;;;;;19.30;6.30;;;15.30;99.90;;;;;;5047406;28;20483;-61
2023/03/13 10:29:51;;;;;;;16.30;6.50;;;15.40;99.90;;;;;;5045697;28;20560;-61
2023/03/13 10:32:19;;;;;;;17.63;6.80;;;15.50;99.90;;;;;;5072661;28;20482;-61
2023/03/13 10:34:50;;;;;;;10.57;5.30;;;15.60;99.90;;;;;;5068245;28;20479;-61
2023/03/13 10:37:22;;;;;;;28.57;8.17;;;15.70;99.90;;;;;;5056493;28;20536;-62
2023/03/13 10:39:50;;;;;;;15.80;5.57;;;15.90;99.90;;;;;;5078250;28;20791;-61
2023/03/13 10:42:27;;;;;;;18.37;6.77;;;16.00;99.90;;;;;;5086525;28;20583;-61
2023/03/13 10:44:59;;;;;;;16.23;8.17;;;16.00;99.90;;;;;;5070841;28;20730;-61
2023/03/13 10:47:26;;;;;;;7.67;4.33;;;16.10;99.90;;;;;;5066874;28;20467;-61
2023/03/13 10:49:56;;;;;;;9.20;4.77;;;16.10;99.90;;;;;;5058622;28;20502;-61
2023/03/13 10:52:35;;;;;;;17.77;7.53;;;16.30;99.90;;;;;;5062822;28;20482;-61
2023/03/13 10:55:05;;;;;;;14.47;7.43;;;16.30;99.90;;;;;;5066523;28;20562;-61
2023/03/13 10:57:34;;;;;;;11.20;6.30;;;16.40;99.90;;;;;;5085048;28;20485;-62
2023/03/13 11:00:09;;;;;;;10.47;5.70;;;16.60;99.90;;;;;;5069393;28;20545;-62
2023/03/13 11:02:37;;;;;;;9.43;6.40;;;16.80;99.90;;;;;;5059231;28;20489;-62
2023/03/13 11:05:32;;;;;;;17.30;9.20;;;17.10;99.90;;;;;;5060204;28;20523;-62
2023/03/13 11:08:10;;;;;;;17.43;7.23;;;17.20;99.90;;;;;;5072585;28;20501;-62
2023/03/13 11:10:52;;;;;;;9.00;3.67;;;17.20;99.90;;;;;;5070168;28;20576;-62
2023/03/13 11:13:29;;;;;;;9.40;5.60;;;17.20;99.90;;;;;;5067059;28;20979;-62
2023/03/13 11:16:02;;;;;;;13.13;5.40;;;17.20;99.90;;;;;;5054028;28;20903;-61
2023/03/13 11:18:35;;;;;;;10.50;6.03;;;17.30;99.90;;;;;;5052029;28;21009;-61
2023/03/13 11:21:03;;;;;;;6.13;4.30;;;17.30;99.90;;;;;;5070545;28;20543;-61
2023/03/13 11:23:36;;;;;;;12.40;7.17;;;17.40;99.90;;;;;;5063266;28;20480;-61
2023/03/13 11:26:11;;;;;;;13.50;7.20;;;17.30;99.90;;;;;;5058636;28;20618;-62
2023/03/13 11:28:50;;;;;;;7.33;4.50;;;17.60;99.90;;;;;;5081742;28;21001;-62
2023/03/13 11:31:22;;;;;;;13.30;7.30;;;17.60;99.90;;;;;;5090996;28;20489;-62
2023/03/13 11:33:57;;;;;;;10.53;5.67;;;17.80;99.90;;;;;;5071169;28;20483;-62
2023/03/13 11:36:31;;;;;;;9.33;6.17;;;17.90;99.90;;;;;;5066678;28;20485;-62
2023/03/13 11:39:10;;;;;;;9.33;4.40;;;18.10;99.90;;;;;;5080501;28;20477;-62
2023/03/13 11:41:49;;;;;;;6.50;4.13;;;18.20;99.90;;;;;;5030208;28;20491;-62
2023/03/13 11:44:30;;;;;;;11.90;4.80;;;18.20;99.90;;;;;;5052284;28;21002;-62
2023/03/13 11:47:11;;;;;;;13.53;7.70;;;18.20;99.90;;;;;;5065437;28;20876;-62
2023/03/13 11:49:55;;;;;;;7.90;3.67;;;18.20;99.90;;;;;;5079060;28;20477;-62
2023/03/13 11:52:35;;;;;;;11.23;6.93;;;18.10;99.90;;;;;;5053461;28;20466;-63
2023/03/13 11:55:27;;;;;;;14.73;8.30;;;18.20;99.90;;;;;;5066139;28;20712;-62
2023/03/13 11:58:09;;;;;;;12.27;4.80;;;18.30;99.90;;;;;;5070502;28;21005;-62
2023/03/13 12:00:41;;;;;;;9.70;4.90;;;18.40;99.90;;;;;;5057202;28;21014;-61
2023/03/13 12:03:16;;;;;;;15.70;6.40;;;18.50;99.90;;;;;;5056767;28;20865;-62
2023/03/13 12:05:47;;;;;;;9.00;5.47;;;18.60;99.90;;;;;;5053070;28;20477;-62
2023/03/13 12:08:19;;;;;;;12.60;6.83;;;18.60;99.90;;;;;;5076563;28;20994;-61
2023/03/13 12:10:48;;;;;;;8.37;4.10;;;18.60;99.90;;;;;;5038991;28;20899;-62
2023/03/13 12:13:20;;;;;;;17.20;9.00;;;18.50;99.90;;;;;;5063635;28;20555;-62
2023/03/13 12:15:50;;;;;;;16.67;4.50;;;18.60;99.90;;;;;;5081285;28;20478;-61
2023/03/13 12:18:22;;;;;;;11.40;6.70;;;18.60;99.90;;;;;;5049063;28;20554;-62
2023/03/13 12:20:56;;;;;;;8.20;5.00;;;18.70;99.90;;;;;;5063901;28;20747;-61
2023/03/13 12:23:31;;;;;;;14.10;7.13;;;18.70;99.90;;;;;;5069175;28;20586;-62
2023/03/13 12:26:04;;;;;;;10.13;5.87;;;18.60;99.90;;;;;;5054708;28;20904;-62
2023/03/13 12:28:37;;;;;;;6.67;4.03;;;18.30;99.40;;;;;;5079897;28;20470;-62
2023/03/13 12:31:11;;;;;;;23.93;10.63;;;18.30;99.90;;;;;;5091815;28;20481;-62
2023/03/13 12:33:44;;;;;;;12.67;4.57;;;18.30;99.90;;;;;;5072202;28;21202;-62
2023/03/13 12:36:17;;;;;;;19.20;9.53;;;18.40;99.90;;;;;;5069373;28;20884;-61
2023/03/13 12:38:49;;;;;;;6.77;3.97;;;18.50;99.90;;;;;;5062789;28;20477;-62
2023/03/13 12:41:23;;;;;;;13.67;7.47;;;18.50;99.30;;;;;;5052192;28;20550;-62
2023/03/13 12:43:53;;;;;;;12.43;6.47;;;18.60;99.70;;;;;;5059898;28;20518;-63
2023/03/13 12:46:36;;;;;;;15.77;8.07;;;18.70;99.50;;;;;;5074275;28;20475;-62
2023/03/13 12:49:34;;;;;;;20.93;9.37;;;18.70;98.90;;;;;;5068438;28;20568;-62
2023/03/13 12:52:14;;;;;;;16.83;8.87;;;18.70;99.20;;;;;;5061755;28;20906;-61
2023/03/13 12:54:50;;;;;;;8.40;4.77;;;18.90;99.80;;;;;;5086331;28;20566;-62
2023/03/13 12:57:51;;;;;;;20.97;9.60;;;19.10;99.20;;;;;;5083512;28;20882;-62
2023/03/13 13:00:22;;;;;;;16.40;7.87;;;19.40;99.40;;;;;;5054393;28;20937;-62
2023/03/13 13:03:04;;;;;;;8.40;4.93;;;19.30;99.00;;;;;;5064571;28;20576;-62
2023/03/13 13:05:31;;;;;;;14.47;6.60;;;19.50;99.90;;;;;;5058210;28;21143;-63
2023/03/13 13:07:57;;;;;;;16.53;5.77;;;19.50;98.50;;;;;;5087929;28;20486;-63